Peary Spirit — C6YM3 — position and weather

sailwx.info

Track history (hours):
 
Tides and Currents Weather Stations Pressure Air Temp Water Temp Dewpoint Dewpoint Depression Visibility Wind Speed Wind Dir Waves Ship Positions

Peary Spirit

Last reported at 2015-Apr-21 02:32 UTC. Time now 2015-Apr-21 03:01 UTC.
Position N 58°49' E 005°22'.

Length 249 m; draft 9.2 m.

Type: Tanker. MMSI: 311027600.

Date/timePositionNaut miles runAvg speedWind from/ knotsBaromVisibWave heightAir tempDewpointWater temp
2015-Apr-21 02:32N 58°49' E 005°22'0 0.0
2015-Apr-21 01:11N 58°49' E 005°22'0 0.0
2015-Apr-21 00:32N 58°49' E 005°22'0 0.0
2015-Apr-20 23:32N 58°49' E 005°22'0 0.0
2015-Apr-20 22:32N 58°49' E 005°22'0 0.0
2015-Apr-20 21:32N 58°49' E 005°22'0 0.0
2015-Apr-20 20:26N 58°49' E 005°22'0 0.0
2015-Apr-20 19:32N 58°49' E 005°22'0 0.1
2015-Apr-20 18:29N 58°49' E 005°21'0 0.0
2015-Apr-20 17:32N 58°49' E 005°21'0 0.0
2015-Apr-20 16:32N 58°49' E 005°22'0 0.0
2015-Apr-20 15:32N 58°49' E 005°22'0 0.0
2015-Apr-20 14:32N 58°49' E 005°22'0 0.0
2015-Apr-20 13:32N 58°49' E 005°22'0 0.0
2015-Apr-20 12:32N 58°49' E 005°22'0 0.0
2015-Apr-20 11:32N 58°49' E 005°22'0 0.0
2015-Apr-20 10:32N 58°49' E 005°22'0 0.0
2015-Apr-20 09:32N 58°49' E 005°22'0 0.0
2015-Apr-20 08:32N 58°49' E 005°22'0 0.0
2015-Apr-20 07:32N 58°49' E 005°22'0 0.2
2015-Apr-20 06:26N 58°49' E 005°22'0 0.2
2015-Apr-20 05:32N 58°49' E 005°21'0 0.1
2015-Apr-20 04:29N 58°49' E 005°21'0 0.0
2015-Apr-20 03:32N 58°49' E 005°21'0 0.0
2015-Apr-20 02:32N 58°49' E 005°21'0 0.0
2015-Apr-20 01:33N 58°49' E 005°21'0 0.0
2015-Apr-20 00:32N 58°49' E 005°22'0 0.0
2015-Apr-19 23:32N 58°49' E 005°22'0 0.0
2015-Apr-19 22:32N 58°49' E 005°22'0 0.0
2015-Apr-19 21:32N 58°49' E 005°22'0 0.0
2015-Apr-19 20:32N 58°49' E 005°22'0 0.0
2015-Apr-19 19:32N 58°49' E 005°22'0 0.0
2015-Apr-19 18:32N 58°49' E 005°22'0 0.1
2015-Apr-19 17:32N 58°49' E 005°22'0 0.0
2015-Apr-19 16:32N 58°49' E 005°22'0 0.0
2015-Apr-19 15:32N 58°49' E 005°22'0 0.0
2015-Apr-19 14:29N 58°49' E 005°22'0 0.0
2015-Apr-19 13:29N 58°49' E 005°22'0 0.0
2015-Apr-19 12:26N 58°49' E 005°22'0 0.0
2015-Apr-19 11:26N 58°49' E 005°22'0 0.0
2015-Apr-19 10:29N 58°49' E 005°22'0 0.0
2015-Apr-19 09:32N 58°49' E 005°22'0 0.0
2015-Apr-19 08:32N 58°49' E 005°22'0 0.0
2015-Apr-19 07:32N 58°49' E 005°22'0 0.0
2015-Apr-19 06:32N 58°49' E 005°22'0 0.1
2015-Apr-19 05:32N 58°49' E 005°22'0 0.0
2015-Apr-19 04:32N 58°49' E 005°21'0 0.0
2015-Apr-19 03:32N 58°49' E 005°21'0 0.0
2015-Apr-19 02:26N 58°49' E 005°21'0 0.0
2015-Apr-19 01:32N 58°49' E 005°21'0 0.0
2015-Apr-19 00:26N 58°49' E 005°22'0 0.0
2015-Apr-18 23:32N 58°49' E 005°22'0 0.0
2015-Apr-18 22:32N 58°49' E 005°22'0 0.0
2015-Apr-18 21:32N 58°49' E 005°22'0 0.0
2015-Apr-18 20:32N 58°49' E 005°22'0 0.0
2015-Apr-18 19:32N 58°49' E 005°22'0 0.0
2015-Apr-18 18:32N 58°49' E 005°22'0 0.0
2015-Apr-18 17:33N 58°49' E 005°22'0 0.0
2015-Apr-18 16:32N 58°49' E 005°22'0 0.0
2015-Apr-18 15:32N 58°49' E 005°22'0 0.0
2015-Apr-18 14:32N 58°49' E 005°22'0 0.0
2015-Apr-18 13:32N 58°49' E 005°22'0 0.0
2015-Apr-18 12:32N 58°49' E 005°22'0 0.0
2015-Apr-18 11:29N 58°49' E 005°22'0 0.0
2015-Apr-18 10:32N 58°49' E 005°22'1 1.4
2015-Apr-18 09:33N 58°49' E 005°19'9 9.5
2015-Apr-18 08:33N 58°49' E 005°01'4 3.7
2015-Apr-18 07:33N 58°52' E 004°57'5 4.8
2015-Apr-18 06:33N 58°57' E 004°53'3 3.3
2015-Apr-18 05:33N 58°55' E 004°58'7 7.5
2015-Apr-18 04:34N 58°47' E 004°59'32 7.8
2015-Apr-18 00:29N 58°17' E 004°38'225 7.7
2015-Apr-16 19:12N 54°33' E 004°21'25 9.0
2015-Apr-16 16:28N 54°10' E 004°38'1111.6
2015-Apr-16 15:33N 53°60' E 004°42'1615.3
2015-Apr-16 14:30N 53°48' E 004°24'1715.2
2015-Apr-16 13:24N 53°38' E 004°02'4315.0
2015-Apr-16 10:33N 53°01' E 003°25'1514.6
2015-Apr-16 09:33N 52°48' E 003°15'1414.1
2015-Apr-16 08:33N 52°35' E 003°04'1413.6
2015-Apr-16 07:33N 52°23' E 002°54'1313.1
2015-Apr-16 06:33N 52°12' E 002°43'1313.0
2015-Apr-16 05:33N 51°59' E 002°39'1313.1
2015-Apr-16 04:33N 51°46' E 002°35'1413.8
2015-Apr-16 03:34N 51°35' E 002°22'1414.2
2015-Apr-16 02:34N 51°24' E 002°08'1413.7
2015-Apr-16 01:34N 51°23' E 002°30'1211.8
2015-Apr-16 00:33N 51°22' E 002°49'1414.1
2015-Apr-15 23:34N 51°24' E 003°11'1413.8
2015-Apr-15 22:33N 51°26' E 003°33'8 8.0
2015-Apr-15 21:34N 51°22' E 003°45'1010.2
2015-Apr-15 20:34N 51°26' E 003°60'8 8.2
2015-Apr-15 19:33N 51°24' E 004°12'4 4.3
2015-Apr-15 18:32N 51°21' E 004°17'0 0.0
2015-Apr-15 17:33N 51°21' E 004°17'1 0.5
2015-Apr-15 16:28N 51°20' E 004°18'0 0.0
2015-Apr-15 15:28N 51°20' E 004°18'0 0.0
2015-Apr-15 14:04N 51°20' E 004°18'0 0.0
2015-Apr-15 13:28N 51°20' E 004°18'0 0.0
2015-Apr-15 12:31N 51°20' E 004°18'0 0.0
2015-Apr-15 11:31N 51°20' E 004°18'0 0.0
2015-Apr-15 10:19N 51°20' E 004°18'0 0.0
2015-Apr-15 09:28N 51°20' E 004°18'0 0.0
2015-Apr-15 08:25N 51°20' E 004°18'0 0.0
2015-Apr-15 07:28N 51°20' E 004°18'0 0.0
2015-Apr-15 06:28N 51°20' E 004°18'0 0.0
2015-Apr-15 05:28N 51°20' E 004°18'0 0.0
2015-Apr-15 04:28N 51°20' E 004°18'0 0.0
2015-Apr-15 03:16N 51°20' E 004°18'0 0.0
2015-Apr-15 01:16N 51°20' E 004°18'0 0.0
2015-Apr-15 00:28N 51°20' E 004°18'0 0.0
2015-Apr-14 23:28N 51°20' E 004°18'0 0.0
2015-Apr-14 22:28N 51°20' E 004°18'0 0.0
2015-Apr-14 21:28N 51°20' E 004°18'0 0.0
2015-Apr-14 20:13N 51°20' E 004°18'0 0.0
2015-Apr-14 19:28N 51°20' E 004°18'0 0.0
2015-Apr-14 18:10N 51°20' E 004°18'0 0.0
2015-Apr-14 17:28N 51°20' E 004°18'0 0.0
2015-Apr-14 16:22N 51°20' E 004°18'0 0.0
2015-Apr-14 14:28N 51°20' E 004°18'0 0.0
2015-Apr-14 09:20N 51°20' E 004°18'0 0.4
2015-Apr-14 08:34N 51°21' E 004°18'0 0.4
2015-Apr-14 07:33N 51°21' E 004°17'1 1.3
2015-Apr-14 06:34N 51°21' E 004°15'8 7.7
2015-Apr-14 05:34N 51°23' E 004°03'5 5.4
2015-Apr-14 04:33N 51°22' E 003°54'8 7.7
2015-Apr-14 03:33N 51°24' E 003°43'7 7.4
2015-Apr-14 02:33N 51°25' E 003°31'1110.3
2015-Apr-14 01:31N 51°24' E 003°14'9 9.7
2015-Apr-14 00:33N 51°25' E 002°59'10 9.6
2015-Apr-13 23:33N 51°23' E 002°44'8 7.4
2015-Apr-13 22:32N 51°23' E 002°32'9 9.3
2015-Apr-13 21:34N 51°19' E 002°19'1312.9
2015-Apr-13 20:34N 51°23' E 001°59'9 9.0
2015-Apr-13 19:34N 51°31' E 002°06'1211.7
2015-Apr-13 18:34N 51°39' E 002°19'4312.3
2015-Apr-13 15:05N 52°18' E 002°46'814.8
2015-Apr-13 14:34N 52°25' E 002°51'  
Track history (hours):
 
Tides and Currents Weather Stations Pressure Air Temp Water Temp Dewpoint Dewpoint Depression Visibility Wind Speed Wind Dir Waves Ship Positions

Peary Spirit

Last reported at 2015-Apr-21 02:32 UTC. Time now 2015-Apr-21 03:01 UTC.
Position N 58°49' E 005°22'.

Length 249 m; draft 9.2 m.

Type: Tanker. MMSI: 311027600.

Date/timePositionNaut miles runAvg speedWind from/ knotsBaromVisibWave heightAir tempDewpointWater temp
2015-Apr-21 02:32N 58°49' E 005°22'0 0.0
2015-Apr-21 01:11N 58°49' E 005°22'0 0.0
2015-Apr-21 00:32N 58°49' E 005°22'0 0.0
2015-Apr-20 23:32N 58°49' E 005°22'0 0.0
2015-Apr-20 22:32N 58°49' E 005°22'0 0.0
2015-Apr-20 21:32N 58°49' E 005°22'0 0.0
2015-Apr-20 20:26N 58°49' E 005°22'0 0.0
2015-Apr-20 19:32N 58°49' E 005°22'0 0.1
2015-Apr-20 18:29N 58°49' E 005°21'0 0.0
2015-Apr-20 17:32N 58°49' E 005°21'0 0.0
2015-Apr-20 16:32N 58°49' E 005°22'0 0.0
2015-Apr-20 15:32N 58°49' E 005°22'0 0.0
2015-Apr-20 14:32N 58°49' E 005°22'0 0.0
2015-Apr-20 13:32N 58°49' E 005°22'0 0.0
2015-Apr-20 12:32N 58°49' E 005°22'0 0.0
2015-Apr-20 11:32N 58°49' E 005°22'0 0.0
2015-Apr-20 10:32N 58°49' E 005°22'0 0.0
2015-Apr-20 09:32N 58°49' E 005°22'0 0.0
2015-Apr-20 08:32N 58°49' E 005°22'0 0.0
2015-Apr-20 07:32N 58°49' E 005°22'0 0.2
2015-Apr-20 06:26N 58°49' E 005°22'0 0.2
2015-Apr-20 05:32N 58°49' E 005°21'0 0.1
2015-Apr-20 04:29N 58°49' E 005°21'0 0.0
2015-Apr-20 03:32N 58°49' E 005°21'0 0.0
2015-Apr-20 02:32N 58°49' E 005°21'0 0.0
2015-Apr-20 01:33N 58°49' E 005°21'0 0.0
2015-Apr-20 00:32N 58°49' E 005°22'0 0.0
2015-Apr-19 23:32N 58°49' E 005°22'0 0.0
2015-Apr-19 22:32N 58°49' E 005°22'0 0.0
2015-Apr-19 21:32N 58°49' E 005°22'0 0.0
2015-Apr-19 20:32N 58°49' E 005°22'0 0.0
2015-Apr-19 19:32N 58°49' E 005°22'0 0.0
2015-Apr-19 18:32N 58°49' E 005°22'0 0.1
2015-Apr-19 17:32N 58°49' E 005°22'0 0.0
2015-Apr-19 16:32N 58°49' E 005°22'0 0.0
2015-Apr-19 15:32N 58°49' E 005°22'0 0.0
2015-Apr-19 14:29N 58°49' E 005°22'0 0.0
2015-Apr-19 13:29N 58°49' E 005°22'0 0.0
2015-Apr-19 12:26N 58°49' E 005°22'0 0.0
2015-Apr-19 11:26N 58°49' E 005°22'0 0.0
2015-Apr-19 10:29N 58°49' E 005°22'0 0.0
2015-Apr-19 09:32N 58°49' E 005°22'0 0.0
2015-Apr-19 08:32N 58°49' E 005°22'0 0.0
2015-Apr-19 07:32N 58°49' E 005°22'0 0.0
2015-Apr-19 06:32N 58°49' E 005°22'0 0.1
2015-Apr-19 05:32N 58°49' E 005°22'0 0.0
2015-Apr-19 04:32N 58°49' E 005°21'0 0.0
2015-Apr-19 03:32N 58°49' E 005°21'0 0.0
2015-Apr-19 02:26N 58°49' E 005°21'0 0.0
2015-Apr-19 01:32N 58°49' E 005°21'0 0.0
2015-Apr-19 00:26N 58°49' E 005°22'0 0.0
2015-Apr-18 23:32N 58°49' E 005°22'0 0.0
2015-Apr-18 22:32N 58°49' E 005°22'0 0.0
2015-Apr-18 21:32N 58°49' E 005°22'0 0.0
2015-Apr-18 20:32N 58°49' E 005°22'0 0.0
2015-Apr-18 19:32N 58°49' E 005°22'0 0.0
2015-Apr-18 18:32N 58°49' E 005°22'0 0.0
2015-Apr-18 17:33N 58°49' E 005°22'0 0.0
2015-Apr-18 16:32N 58°49' E 005°22'0 0.0
2015-Apr-18 15:32N 58°49' E 005°22'0 0.0
2015-Apr-18 14:32N 58°49' E 005°22'0 0.0
2015-Apr-18 13:32N 58°49' E 005°22'0 0.0
2015-Apr-18 12:32N 58°49' E 005°22'0 0.0
2015-Apr-18 11:29N 58°49' E 005°22'0 0.0
2015-Apr-18 10:32N 58°49' E 005°22'1 1.4
2015-Apr-18 09:33N 58°49' E 005°19'9 9.5
2015-Apr-18 08:33N 58°49' E 005°01'4 3.7
2015-Apr-18 07:33N 58°52' E 004°57'5 4.8
2015-Apr-18 06:33N 58°57' E 004°53'3 3.3
2015-Apr-18 05:33N 58°55' E 004°58'7 7.5
2015-Apr-18 04:34N 58°47' E 004°59'32 7.8
2015-Apr-18 00:29N 58°17' E 004°38'225 7.7
2015-Apr-16 19:12N 54°33' E 004°21'25 9.0
2015-Apr-16 16:28N 54°10' E 004°38'1111.6
2015-Apr-16 15:33N 53°60' E 004°42'1615.3
2015-Apr-16 14:30N 53°48' E 004°24'1715.2
2015-Apr-16 13:24N 53°38' E 004°02'4315.0
2015-Apr-16 10:33N 53°01' E 003°25'1514.6
2015-Apr-16 09:33N 52°48' E 003°15'1414.1
2015-Apr-16 08:33N 52°35' E 003°04'1413.6
2015-Apr-16 07:33N 52°23' E 002°54'1313.1
2015-Apr-16 06:33N 52°12' E 002°43'1313.0
2015-Apr-16 05:33N 51°59' E 002°39'1313.1
2015-Apr-16 04:33N 51°46' E 002°35'1413.8
2015-Apr-16 03:34N 51°35' E 002°22'1414.2
2015-Apr-16 02:34N 51°24' E 002°08'1413.7
2015-Apr-16 01:34N 51°23' E 002°30'1211.8
2015-Apr-16 00:33N 51°22' E 002°49'1414.1
2015-Apr-15 23:34N 51°24' E 003°11'1413.8
2015-Apr-15 22:33N 51°26' E 003°33'8 8.0
2015-Apr-15 21:34N 51°22' E 003°45'1010.2
2015-Apr-15 20:34N 51°26' E 003°60'8 8.2
2015-Apr-15 19:33N 51°24' E 004°12'4 4.3
2015-Apr-15 18:32N 51°21' E 004°17'0 0.0
2015-Apr-15 17:33N 51°21' E 004°17'1 0.5
2015-Apr-15 16:28N 51°20' E 004°18'0 0.0
2015-Apr-15 15:28N 51°20' E 004°18'0 0.0
2015-Apr-15 14:04N 51°20' E 004°18'0 0.0
2015-Apr-15 13:28N 51°20' E 004°18'0 0.0
2015-Apr-15 12:31N 51°20' E 004°18'0 0.0
2015-Apr-15 11:31N 51°20' E 004°18'0 0.0
2015-Apr-15 10:19N 51°20' E 004°18'0 0.0
2015-Apr-15 09:28N 51°20' E 004°18'0 0.0
2015-Apr-15 08:25N 51°20' E 004°18'0 0.0
2015-Apr-15 07:28N 51°20' E 004°18'0 0.0
2015-Apr-15 06:28N 51°20' E 004°18'0 0.0
2015-Apr-15 05:28N 51°20' E 004°18'0 0.0
2015-Apr-15 04:28N 51°20' E 004°18'0 0.0
2015-Apr-15 03:16N 51°20' E 004°18'0 0.0
2015-Apr-15 01:16N 51°20' E 004°18'0 0.0
2015-Apr-15 00:28N 51°20' E 004°18'0 0.0
2015-Apr-14 23:28N 51°20' E 004°18'0 0.0
2015-Apr-14 22:28N 51°20' E 004°18'0 0.0
2015-Apr-14 21:28N 51°20' E 004°18'0 0.0
2015-Apr-14 20:13N 51°20' E 004°18'0 0.0
2015-Apr-14 19:28N 51°20' E 004°18'0 0.0
2015-Apr-14 18:10N 51°20' E 004°18'0 0.0
2015-Apr-14 17:28N 51°20' E 004°18'0 0.0
2015-Apr-14 16:22N 51°20' E 004°18'0 0.0
2015-Apr-14 14:28N 51°20' E 004°18'0 0.0
2015-Apr-14 09:20N 51°20' E 004°18'0 0.4
2015-Apr-14 08:34N 51°21' E 004°18'0 0.4
2015-Apr-14 07:33N 51°21' E 004°17'1 1.3
2015-Apr-14 06:34N 51°21' E 004°15'8 7.7
2015-Apr-14 05:34N 51°23' E 004°03'5 5.4
2015-Apr-14 04:33N 51°22' E 003°54'8 7.7
2015-Apr-14 03:33N 51°24' E 003°43'7 7.4
2015-Apr-14 02:33N 51°25' E 003°31'1110.3
2015-Apr-14 01:31N 51°24' E 003°14'9 9.7
2015-Apr-14 00:33N 51°25' E 002°59'10 9.6
2015-Apr-13 23:33N 51°23' E 002°44'8 7.4
2015-Apr-13 22:32N 51°23' E 002°32'9 9.3
2015-Apr-13 21:34N 51°19' E 002°19'1312.9
2015-Apr-13 20:34N 51°23' E 001°59'9 9.0
2015-Apr-13 19:34N 51°31' E 002°06'1211.7
2015-Apr-13 18:34N 51°39' E 002°19'4312.3
2015-Apr-13 15:05N 52°18' E 002°46'814.8
2015-Apr-13 14:34N 52°25' E 002°51'  

Dump ship's entire track history